createdAt,value
2019-01-26T00:00:40.376Z,3.18
2019-01-26T00:01:40.404Z,3.13
2019-01-26T00:02:41.118Z,3.28
2019-01-26T00:03:40.407Z,3.21
2019-01-26T00:04:40.425Z,3.26
2019-01-26T00:05:40.438Z,3.11
2019-01-26T00:06:40.520Z,3.16
2019-01-26T00:07:40.464Z,3.08
2019-01-26T00:08:40.491Z,3.16
2019-01-26T00:09:40.543Z,3.10
2019-01-26T00:10:40.513Z,3.21
2019-01-26T00:11:40.519Z,3.31
2019-01-26T00:12:40.588Z,3.32
2019-01-26T00:13:40.589Z,3.36
2019-01-26T00:14:40.560Z,3.36
2019-01-26T00:15:40.623Z,3.34
2019-01-26T00:16:40.588Z,3.36
2019-01-26T00:17:40.605Z,3.31
2019-01-26T00:18:40.646Z,3.45
2019-01-26T00:19:40.715Z,3.47
2019-01-26T00:20:40.646Z,3.51
2019-01-26T00:21:40.704Z,3.53
2019-01-26T00:22:40.701Z,3.59
2019-01-26T00:23:40.688Z,3.60
2019-01-26T00:24:40.735Z,3.56
2019-01-26T00:25:40.713Z,3.51
2019-01-26T00:26:40.743Z,3.36
2019-01-26T00:27:40.740Z,3.31
2019-01-26T00:28:40.771Z,3.37
2019-01-26T00:29:40.771Z,3.44
2019-01-26T00:30:40.779Z,3.51
2019-01-26T00:31:40.795Z,3.65
2019-01-26T00:32:40.892Z,3.58
2019-01-26T00:33:43.323Z,3.70
2019-01-26T00:34:40.852Z,3.66
2019-01-26T00:35:40.850Z,3.66
2019-01-26T00:36:40.869Z,3.68
2019-01-26T00:37:40.881Z,3.63
2019-01-26T00:38:40.900Z,3.70
2019-01-26T00:39:40.922Z,3.56
2019-01-26T00:40:40.917Z,3.51
2019-01-26T00:41:40.955Z,3.37
2019-01-26T00:42:40.958Z,3.36
2019-01-26T00:43:40.962Z,3.37
2019-01-26T00:44:41.020Z,3.34
2019-01-26T00:45:40.995Z,3.34
2019-01-26T00:46:41.000Z,3.51
2019-01-26T00:47:41.024Z,3.50
2019-01-26T00:48:41.040Z,3.47
2019-01-26T00:49:41.042Z,3.42
2019-01-26T00:50:41.102Z,3.41
2019-01-26T00:51:41.093Z,3.37
2019-01-26T00:52:41.098Z,3.36
2019-01-26T00:53:41.103Z,3.36
2019-01-26T00:54:41.133Z,3.36
2019-01-26T00:55:41.175Z,3.34
2019-01-26T00:56:41.163Z,3.31
2019-01-26T00:57:41.154Z,3.40
2019-01-26T00:58:41.183Z,3.41
2019-01-26T00:59:41.292Z,3.44
2019-01-26T01:00:41.207Z,3.59
2019-01-26T01:01:41.212Z,3.44
2019-01-26T01:02:41.253Z,3.48
2019-01-26T01:03:41.291Z,3.31
2019-01-26T01:04:41.258Z,3.37
2019-01-26T01:05:41.296Z,3.34
2019-01-26T01:06:41.283Z,3.40
2019-01-26T01:07:41.440Z,3.34
2019-01-26T01:08:41.318Z,3.26
2019-01-26T01:09:41.350Z,3.23
2019-01-26T01:10:41.339Z,3.25
2019-01-26T01:11:41.455Z,3.26
2019-01-26T01:12:41.388Z,3.44
2019-01-26T01:13:41.380Z,3.32
2019-01-26T01:14:41.406Z,3.29
2019-01-26T01:15:41.478Z,3.37
2019-01-26T01:16:41.429Z,3.44
2019-01-26T01:17:41.430Z,3.41
2019-01-26T01:18:41.453Z,3.47
2019-01-26T01:19:41.475Z,3.32
2019-01-26T01:20:41.499Z,3.36
2019-01-26T01:21:41.511Z,3.44
2019-01-26T01:22:41.499Z,3.58
2019-01-26T01:23:41.546Z,3.58
2019-01-26T01:24:41.538Z,3.51
2019-01-26T01:25:41.548Z,3.51
2019-01-26T01:26:41.574Z,3.62
2019-01-26T01:27:41.606Z,3.65
2019-01-26T01:28:41.589Z,3.59
2019-01-26T01:29:41.612Z,3.59
2019-01-26T01:30:41.637Z,3.68
2019-01-26T01:31:41.637Z,3.58
2019-01-26T01:32:41.657Z,3.51
2019-01-26T01:33:41.675Z,3.48
2019-01-26T01:34:41.707Z,3.47
2019-01-26T01:35:41.680Z,3.51
2019-01-26T01:36:41.709Z,3.51
2019-01-26T01:37:41.721Z,3.37
2019-01-26T01:38:41.740Z,3.36
2019-01-26T01:39:41.762Z,3.31
2019-01-26T01:40:41.750Z,3.31
2019-01-26T01:41:41.767Z,3.32
2019-01-26T01:42:41.790Z,3.40
2019-01-26T01:43:41.791Z,3.32
2019-01-26T01:44:41.814Z,3.47
2019-01-26T01:45:41.842Z,3.59
2019-01-26T01:46:42.951Z,3.66
2019-01-26T01:47:41.917Z,3.62
2019-01-26T01:48:41.861Z,3.69
2019-01-26T01:49:41.888Z,3.70
2019-01-26T01:50:41.898Z,3.62
2019-01-26T01:51:41.906Z,3.76
2019-01-26T01:52:42.000Z,3.76
2019-01-26T01:53:41.960Z,3.78
2019-01-26T01:54:41.955Z,3.81
2019-01-26T01:55:41.979Z,3.77
2019-01-26T01:56:41.994Z,3.86
2019-01-26T01:57:41.997Z,3.84
2019-01-26T01:58:42.002Z,3.81
2019-01-26T01:59:42.025Z,3.83
2019-01-26T02:00:42.036Z,3.81
2019-01-26T02:01:42.046Z,3.78
2019-01-26T02:02:42.061Z,3.78
2019-01-26T02:03:42.086Z,3.70
2019-01-26T02:04:42.149Z,3.78
2019-01-26T02:05:42.112Z,3.83
2019-01-26T02:06:42.278Z,3.92
2019-01-26T02:07:42.148Z,3.95
2019-01-26T02:08:42.162Z,3.88
2019-01-26T02:09:42.169Z,3.84
2019-01-26T02:10:42.226Z,3.91
2019-01-26T02:11:42.187Z,3.91
2019-01-26T02:12:42.217Z,3.92
2019-01-26T02:13:42.250Z,3.91
2019-01-26T02:14:42.245Z,3.94
2019-01-26T02:15:42.359Z,3.96
2019-01-26T02:16:42.268Z,4.02
2019-01-26T02:17:42.287Z,3.98
2019-01-26T02:18:42.287Z,3.94
2019-01-26T02:19:42.485Z,3.88
2019-01-26T02:20:42.327Z,3.87
2019-01-26T02:21:42.342Z,3.86
2019-01-26T02:22:42.353Z,3.84
2019-01-26T02:23:42.364Z,3.86
2019-01-26T02:24:42.404Z,3.98
2019-01-26T02:25:42.404Z,4.04
2019-01-26T02:26:42.400Z,4.05
2019-01-26T02:27:42.412Z,3.96
2019-01-26T02:28:42.509Z,3.96
2019-01-26T02:29:42.479Z,4.04
2019-01-26T02:30:42.459Z,4.05
2019-01-26T02:31:42.500Z,3.87
2019-01-26T02:32:42.500Z,3.99
2019-01-26T02:33:42.512Z,3.99
2019-01-26T02:34:42.526Z,4.01
2019-01-26T02:35:42.547Z,3.87
2019-01-26T02:36:42.544Z,3.94
2019-01-26T02:37:42.561Z,3.83
2019-01-26T02:38:42.569Z,3.84
2019-01-26T02:39:42.632Z,3.87
2019-01-26T02:40:42.671Z,4.02
2019-01-26T02:41:42.636Z,4.02
2019-01-26T02:42:42.655Z,4.02
2019-01-26T02:43:42.649Z,3.99
2019-01-26T02:44:42.662Z,4.10
2019-01-26T02:45:42.691Z,4.02
2019-01-26T02:46:42.686Z,4.04
2019-01-26T02:47:42.706Z,4.04
2019-01-26T02:48:42.713Z,3.86
2019-01-26T02:49:42.780Z,3.83
2019-01-26T02:50:42.760Z,4.01
2019-01-26T02:51:42.813Z,3.95
2019-01-26T02:52:42.768Z,3.95
2019-01-26T02:53:42.845Z,4.04
2019-01-26T02:54:42.794Z,3.95
2019-01-26T02:55:42.817Z,3.94
2019-01-26T02:56:42.842Z,4.02
2019-01-26T02:57:42.861Z,4.08
2019-01-26T02:58:42.869Z,4.04
2019-01-26T02:59:42.899Z,4.06
2019-01-26T03:00:42.881Z,4.20
2019-01-26T03:01:42.914Z,4.12
2019-01-26T03:02:42.936Z,4.14
2019-01-26T03:03:42.939Z,4.16
2019-01-26T03:04:42.950Z,4.01
2019-01-26T03:05:42.959Z,4.12
2019-01-26T03:06:42.984Z,4.22
2019-01-26T03:07:42.988Z,4.22
2019-01-26T03:08:43.048Z,4.06
2019-01-26T03:09:43.032Z,4.16
2019-01-26T03:10:43.024Z,4.12
2019-01-26T03:11:43.076Z,4.04
2019-01-26T03:12:43.058Z,4.05
2019-01-26T03:13:43.071Z,4.08
2019-01-26T03:14:43.091Z,4.08
2019-01-26T03:15:43.108Z,4.01
2019-01-26T03:16:43.115Z,4.13
2019-01-26T03:17:43.128Z,4.14
2019-01-26T03:18:43.142Z,4.19
2019-01-26T03:19:43.158Z,4.17
2019-01-26T03:20:43.166Z,4.19
2019-01-26T03:21:43.191Z,4.13
2019-01-26T03:22:43.245Z,4.08
2019-01-26T03:23:43.207Z,4.14
2019-01-26T03:24:43.229Z,4.13
2019-01-26T03:25:43.281Z,4.14
2019-01-26T03:26:43.259Z,4.20
2019-01-26T03:27:43.266Z,4.17
2019-01-26T03:28:43.286Z,4.19
2019-01-26T03:29:43.308Z,4.17
2019-01-26T03:30:43.323Z,4.19
2019-01-26T03:31:43.371Z,4.20
2019-01-26T03:32:43.344Z,4.19
2019-01-26T03:33:43.359Z,4.17
2019-01-26T03:34:43.376Z,4.17
2019-01-26T03:35:43.381Z,4.17
2019-01-26T03:36:43.397Z,4.20
2019-01-26T03:37:43.409Z,4.14
2019-01-26T03:38:43.555Z,4.01
2019-01-26T03:39:43.437Z,4.01
2019-01-26T03:40:43.458Z,4.05
2019-01-26T03:41:43.490Z,4.13
2019-01-26T03:42:43.522Z,4.16
2019-01-26T03:43:43.555Z,4.16
2019-01-26T03:44:43.531Z,4.12
2019-01-26T03:45:43.525Z,4.17
2019-01-26T03:46:43.536Z,4.17
2019-01-26T03:47:43.551Z,4.23
2019-01-26T03:48:43.639Z,4.22
2019-01-26T03:49:43.582Z,4.23
2019-01-26T03:50:43.622Z,4.23
2019-01-26T03:51:43.624Z,4.28
2019-01-26T03:52:43.631Z,4.16
2019-01-26T03:53:43.666Z,4.16
2019-01-26T03:54:43.665Z,4.17
2019-01-26T03:55:43.672Z,4.26
2019-01-26T03:56:43.688Z,4.22
2019-01-26T03:57:43.715Z,4.17
2019-01-26T03:58:43.723Z,4.28
2019-01-26T03:59:43.734Z,4.23
2019-01-26T04:00:43.738Z,4.23
2019-01-26T04:01:43.799Z,4.26
2019-01-26T04:02:43.770Z,4.35
2019-01-26T04:03:43.794Z,4.40
2019-01-26T04:04:43.818Z,4.28
2019-01-26T04:05:43.823Z,4.34
2019-01-26T04:06:43.841Z,4.32
2019-01-26T04:07:43.841Z,4.28
2019-01-26T04:08:43.878Z,4.32
2019-01-26T04:09:43.881Z,4.32
2019-01-26T04:10:43.908Z,4.20
2019-01-26T04:11:43.909Z,4.34
2019-01-26T04:12:43.946Z,4.40
2019-01-26T04:13:43.938Z,4.30
2019-01-26T04:14:43.965Z,4.26
2019-01-26T04:15:43.975Z,4.26
2019-01-26T04:16:43.989Z,4.30
2019-01-26T04:17:43.996Z,4.34
2019-01-26T04:18:44.024Z,4.35
2019-01-26T04:19:44.030Z,4.34
2019-01-26T04:20:44.042Z,4.31
2019-01-26T04:21:44.077Z,4.32
2019-01-26T04:22:44.080Z,4.37
2019-01-26T04:23:44.073Z,4.34
2019-01-26T04:24:44.087Z,4.41
2019-01-26T04:25:44.104Z,4.38
2019-01-26T04:26:44.116Z,4.41
2019-01-26T04:27:44.130Z,4.44
2019-01-26T04:28:44.147Z,4.31
2019-01-26T04:29:44.159Z,4.30
2019-01-26T04:30:44.206Z,4.28
2019-01-26T04:31:44.198Z,4.40
2019-01-26T04:32:44.216Z,4.31
2019-01-26T04:33:44.216Z,4.30
2019-01-26T04:34:44.235Z,4.23
2019-01-26T04:35:44.245Z,4.28
2019-01-26T04:36:44.260Z,4.26
2019-01-26T04:37:44.276Z,4.19
2019-01-26T04:38:44.318Z,4.23
2019-01-26T04:39:44.310Z,4.24
2019-01-26T04:40:44.333Z,4.31
2019-01-26T04:41:44.355Z,4.20
2019-01-26T04:42:44.345Z,4.28
2019-01-26T04:43:44.363Z,4.30
2019-01-26T04:44:44.412Z,4.20
2019-01-26T04:45:44.394Z,4.32
2019-01-26T04:46:44.407Z,4.26
2019-01-26T04:47:44.423Z,4.34
2019-01-26T04:48:44.444Z,4.35
2019-01-26T04:49:44.457Z,4.40
2019-01-26T04:50:44.490Z,4.41
2019-01-26T04:51:44.475Z,4.37
2019-01-26T04:52:44.501Z,4.38
2019-01-26T04:53:44.521Z,4.42
2019-01-26T04:54:44.525Z,4.45
2019-01-26T04:55:44.533Z,4.41
2019-01-26T04:56:44.569Z,4.45
2019-01-26T04:57:44.637Z,4.44
2019-01-26T04:58:44.586Z,4.37
2019-01-26T04:59:44.590Z,4.42
2019-01-26T05:00:44.625Z,4.49
2019-01-26T05:01:44.627Z,4.42
2019-01-26T05:02:44.682Z,4.40
2019-01-26T05:03:44.677Z,4.45
2019-01-26T05:04:44.737Z,4.44
2019-01-26T05:05:44.689Z,4.48
2019-01-26T05:06:44.725Z,4.42
2019-01-26T05:07:44.711Z,4.44
2019-01-26T05:08:44.726Z,4.44
2019-01-26T05:09:44.741Z,4.42
2019-01-26T05:10:44.756Z,4.41
2019-01-26T05:11:44.781Z,4.45
2019-01-26T05:12:44.802Z,4.41
2019-01-26T05:13:44.855Z,4.42
2019-01-26T05:14:44.847Z,4.41
2019-01-26T05:15:44.867Z,4.45
2019-01-26T05:16:44.891Z,4.44
2019-01-26T05:17:44.863Z,4.44
2019-01-26T05:18:44.947Z,4.22
2019-01-26T05:19:44.886Z,4.28
2019-01-26T05:20:44.901Z,4.26
2019-01-26T05:21:44.920Z,4.28
2019-01-26T05:22:44.945Z,4.20
2019-01-26T05:23:44.992Z,4.20
2019-01-26T05:24:45.029Z,4.31
2019-01-26T05:25:44.983Z,4.41
2019-01-26T05:26:45.000Z,4.42
2019-01-26T05:27:45.013Z,4.22
2019-01-26T05:28:45.182Z,4.06
2019-01-26T05:29:45.133Z,4.14
2019-01-26T05:30:45.331Z,4.22
2019-01-26T05:31:45.066Z,4.19
2019-01-26T05:32:45.219Z,4.17
2019-01-26T05:33:45.144Z,4.14
2019-01-26T05:34:45.133Z,4.37
2019-01-26T05:35:45.288Z,4.26
2019-01-26T05:36:45.231Z,4.34
2019-01-26T05:37:45.145Z,4.32
2019-01-26T05:38:45.197Z,4.24
2019-01-26T05:39:45.233Z,4.24
2019-01-26T05:40:45.256Z,4.22
2019-01-26T05:41:45.224Z,4.31
2019-01-26T05:42:45.279Z,4.24
2019-01-26T05:43:45.248Z,4.30
2019-01-26T05:44:45.278Z,4.31
2019-01-26T05:45:45.272Z,4.22
2019-01-26T05:46:45.317Z,4.34
2019-01-26T05:47:49.039Z,4.40
2019-01-26T05:48:45.309Z,4.23
2019-01-26T05:49:45.333Z,4.34
2019-01-26T05:50:45.390Z,4.37
2019-01-26T05:51:45.354Z,4.13
2019-01-26T05:52:45.364Z,4.23
2019-01-26T05:53:45.375Z,4.24
2019-01-26T05:54:45.399Z,4.13
2019-01-26T05:55:45.417Z,4.16
2019-01-26T05:56:45.423Z,4.14
2019-01-26T05:57:45.483Z,4.14
2019-01-26T05:58:45.460Z,4.24
2019-01-26T05:59:45.466Z,4.32
2019-01-26T06:00:45.504Z,4.30
2019-01-26T06:01:45.493Z,4.14
2019-01-26T06:02:45.557Z,4.17
2019-01-26T06:03:45.527Z,4.19
2019-01-26T06:04:45.575Z,4.17
2019-01-26T06:05:45.581Z,4.14
2019-01-26T06:06:45.573Z,3.98
2019-01-26T06:07:45.610Z,4.12
2019-01-26T06:08:45.600Z,4.17
2019-01-26T06:09:45.646Z,4.19
2019-01-26T06:10:45.627Z,3.99
2019-01-26T06:11:45.654Z,4.14
2019-01-26T06:12:45.655Z,4.02
2019-01-26T06:13:45.683Z,4.04
2019-01-26T06:14:45.680Z,4.14
2019-01-26T06:15:45.734Z,4.16
2019-01-26T06:16:45.721Z,3.99
2019-01-26T06:17:45.753Z,4.01
2019-01-26T06:18:45.742Z,4.08
2019-01-26T06:19:45.772Z,3.81
2019-01-26T06:20:45.765Z,3.78
2019-01-26T06:21:45.801Z,3.87
2019-01-26T06:22:45.829Z,4.04
2019-01-26T06:23:46.823Z,4.02
2019-01-26T06:24:45.835Z,4.04
2019-01-26T06:25:45.873Z,3.98
2019-01-26T06:26:45.864Z,3.96
2019-01-26T06:27:45.879Z,4.04
2019-01-26T06:28:45.897Z,4.19
2019-01-26T06:29:45.913Z,4.13
2019-01-26T06:30:45.921Z,3.95
2019-01-26T06:31:45.924Z,3.88
2019-01-26T06:32:45.967Z,3.91
2019-01-26T06:33:45.971Z,3.84
2019-01-26T06:34:45.979Z,4.05
2019-01-26T06:35:45.997Z,4.19
2019-01-26T06:36:46.000Z,4.02
2019-01-26T06:37:46.041Z,4.02
2019-01-26T06:38:46.039Z,3.99
2019-01-26T06:39:46.047Z,3.94
2019-01-26T06:40:46.058Z,3.77
2019-01-26T06:41:46.070Z,3.81
2019-01-26T06:42:46.091Z,3.88
2019-01-26T06:43:46.105Z,3.81
2019-01-26T06:44:46.113Z,3.80
2019-01-26T06:45:46.134Z,3.74
2019-01-26T06:46:46.234Z,3.83
2019-01-26T06:47:46.183Z,3.74
2019-01-26T06:48:46.181Z,3.77
2019-01-26T06:49:46.270Z,3.83
2019-01-26T06:50:46.270Z,3.88
2019-01-26T06:51:46.256Z,3.92
2019-01-26T06:52:46.229Z,3.86
2019-01-26T06:53:46.262Z,3.83
2019-01-26T06:54:46.279Z,3.92
2019-01-26T06:55:46.266Z,4.02
2019-01-26T06:56:46.290Z,4.08
2019-01-26T06:57:46.305Z,4.13
2019-01-26T06:58:46.322Z,4.02
2019-01-26T06:59:46.334Z,4.16
2019-01-26T07:00:46.371Z,4.26
2019-01-26T07:01:46.367Z,4.40
2019-01-26T07:02:46.416Z,4.53
2019-01-26T07:03:46.431Z,4.52
2019-01-26T07:04:46.424Z,4.68
2019-01-26T07:05:46.424Z,4.58
2019-01-26T07:06:46.447Z,4.52
2019-01-26T07:07:46.440Z,4.67
2019-01-26T07:08:46.457Z,4.82
2019-01-26T07:09:46.482Z,4.90
2019-01-26T07:10:46.490Z,5.12
2019-01-26T07:11:46.536Z,5.25
2019-01-26T07:12:46.516Z,5.32
2019-01-26T07:13:46.560Z,5.39
2019-01-26T07:14:46.540Z,5.43
2019-01-26T07:15:46.577Z,5.44
2019-01-26T07:16:46.617Z,5.64
2019-01-26T07:17:46.594Z,5.56
2019-01-26T07:18:46.665Z,5.69
2019-01-26T07:19:46.623Z,5.76
2019-01-26T07:20:46.643Z,5.71
2019-01-26T07:21:46.643Z,5.86
2019-01-26T07:22:46.716Z,5.87
2019-01-26T07:23:46.702Z,5.87
2019-01-26T07:24:46.698Z,5.98
2019-01-26T07:25:46.720Z,5.98
2019-01-26T07:26:46.740Z,5.99
2019-01-26T07:27:46.756Z,6.04
2019-01-26T07:28:46.768Z,6.02
2019-01-26T07:29:46.766Z,6.12
2019-01-26T07:30:46.780Z,6.14
2019-01-26T07:31:46.824Z,6.07
2019-01-26T07:32:46.831Z,6.12
2019-01-26T07:33:46.815Z,6.14
2019-01-26T07:34:46.837Z,6.16
2019-01-26T07:35:46.877Z,6.30
2019-01-26T07:36:46.881Z,6.33
2019-01-26T07:37:46.898Z,6.44
2019-01-26T07:38:46.901Z,6.39
2019-01-26T07:39:46.917Z,6.44
2019-01-26T07:40:46.942Z,6.39
2019-01-26T07:41:46.945Z,6.35
2019-01-26T07:42:46.973Z,6.36
2019-01-26T07:43:47.025Z,6.45
2019-01-26T07:44:46.995Z,6.44
2019-01-26T07:45:47.019Z,6.44
2019-01-26T07:46:47.019Z,6.36
2019-01-26T07:47:47.059Z,6.44
2019-01-26T07:48:47.060Z,6.48
2019-01-26T07:49:47.066Z,6.49
2019-01-26T07:50:47.086Z,6.54
2019-01-26T07:51:47.098Z,6.54
2019-01-26T07:52:47.155Z,6.51
2019-01-26T07:53:47.360Z,6.48
2019-01-26T07:54:47.143Z,6.48
2019-01-26T07:55:47.203Z,6.69
2019-01-26T07:56:47.188Z,6.60
2019-01-26T07:57:47.218Z,6.60
2019-01-26T07:58:47.280Z,6.63
2019-01-26T07:59:47.227Z,6.64
2019-01-26T08:00:47.241Z,6.69
2019-01-26T08:01:47.248Z,6.75
2019-01-26T08:02:47.281Z,6.70
2019-01-26T08:03:47.304Z,6.56
2019-01-26T08:04:47.311Z,6.63
2019-01-26T08:05:47.347Z,6.63
2019-01-26T08:06:47.355Z,6.67
2019-01-26T08:07:47.374Z,6.64
2019-01-26T08:08:47.359Z,6.63
2019-01-26T08:09:47.380Z,6.66
2019-01-26T08:10:47.395Z,6.60
2019-01-26T08:11:47.429Z,6.63
2019-01-26T08:12:47.466Z,6.60
2019-01-26T08:13:47.439Z,6.66
2019-01-26T08:14:47.451Z,6.69
2019-01-26T08:15:47.526Z,6.82
2019-01-26T08:16:47.539Z,6.70
2019-01-26T08:17:47.537Z,6.70
2019-01-26T08:18:47.518Z,6.67
2019-01-26T08:19:47.567Z,6.74
2019-01-26T08:20:47.577Z,6.66
2019-01-26T08:21:47.576Z,6.70
2019-01-26T08:22:47.655Z,6.70
2019-01-26T08:23:47.596Z,6.70
2019-01-26T08:24:47.679Z,6.88
2019-01-26T08:25:47.626Z,6.89
2019-01-26T08:26:47.651Z,6.84
2019-01-26T08:27:47.687Z,6.67
2019-01-26T08:28:47.694Z,6.72
2019-01-26T08:29:47.824Z,6.67
2019-01-26T08:30:47.715Z,6.74
2019-01-26T08:31:47.726Z,6.79
2019-01-26T08:32:47.731Z,6.75
2019-01-26T08:33:47.756Z,6.74
2019-01-26T08:34:47.775Z,6.74
2019-01-26T08:35:47.784Z,6.81
2019-01-26T08:36:47.871Z,6.84
2019-01-26T08:37:47.821Z,6.75
2019-01-26T08:38:47.836Z,6.75
2019-01-26T08:39:47.869Z,6.77
2019-01-26T08:40:47.873Z,6.81
2019-01-26T08:41:47.890Z,6.70
2019-01-26T08:42:47.897Z,6.77
2019-01-26T08:43:47.910Z,6.81
2019-01-26T08:44:47.925Z,6.81
2019-01-26T08:45:47.949Z,6.85
2019-01-26T08:46:47.957Z,6.81
2019-01-26T08:47:48.018Z,6.85
2019-01-26T08:48:47.979Z,6.75
2019-01-26T08:49:47.998Z,6.70
2019-01-26T08:50:48.016Z,6.69
2019-01-26T08:51:48.053Z,6.82
2019-01-26T08:52:48.089Z,6.85
2019-01-26T08:53:48.074Z,6.85
2019-01-26T08:54:48.084Z,6.88
2019-01-26T08:55:48.107Z,6.77
2019-01-26T08:56:48.141Z,6.79
2019-01-26T08:57:48.125Z,6.87
2019-01-26T08:58:48.158Z,6.82
2019-01-26T08:59:48.219Z,6.85
2019-01-26T09:00:48.176Z,6.85
2019-01-26T09:01:48.205Z,6.77
2019-01-26T09:02:48.216Z,6.81
2019-01-26T09:03:48.249Z,6.85
2019-01-26T09:04:48.234Z,6.85
2019-01-26T09:05:48.273Z,6.85
2019-01-26T09:06:48.264Z,6.88
2019-01-26T09:07:48.306Z,6.96
2019-01-26T09:08:48.357Z,6.87
2019-01-26T09:09:48.343Z,6.84
2019-01-26T09:10:48.334Z,6.84
2019-01-26T09:11:48.353Z,6.89
2019-01-26T09:12:48.375Z,6.96
2019-01-26T09:13:48.382Z,6.92
2019-01-26T09:14:48.400Z,6.99
2019-01-26T09:15:48.414Z,7.10
2019-01-26T09:16:48.430Z,6.95
2019-01-26T09:17:48.483Z,7.03
2019-01-26T09:18:48.481Z,6.92
2019-01-26T09:19:48.511Z,6.95
2019-01-26T09:20:48.494Z,7.05
2019-01-26T09:21:48.511Z,6.96
2019-01-26T09:22:48.556Z,6.95
2019-01-26T09:23:48.552Z,7.10
2019-01-26T09:24:48.552Z,6.93
2019-01-26T09:25:48.573Z,7.07
2019-01-26T09:26:48.593Z,7.06
2019-01-26T09:27:48.613Z,6.97
2019-01-26T09:28:48.618Z,7.17
2019-01-26T09:29:48.690Z,7.15
2019-01-26T09:30:48.665Z,7.13
2019-01-26T09:31:48.683Z,6.96
2019-01-26T09:32:48.688Z,7.11
2019-01-26T09:33:48.715Z,7.21
2019-01-26T09:34:48.743Z,7.29
2019-01-26T09:35:48.737Z,7.38
2019-01-26T09:36:48.758Z,7.33
2019-01-26T09:37:48.774Z,7.18
2019-01-26T09:38:48.843Z,7.20
2019-01-26T09:39:48.792Z,7.29
2019-01-26T09:40:48.811Z,7.28
2019-01-26T09:41:48.855Z,7.38
2019-01-26T09:42:48.861Z,7.35
2019-01-26T09:43:48.867Z,7.31
2019-01-26T09:44:48.900Z,7.14
2019-01-26T09:45:48.927Z,7.28
2019-01-26T09:46:48.960Z,7.36
2019-01-26T09:47:49.011Z,7.48
2019-01-26T09:48:48.944Z,7.32
2019-01-26T09:49:48.960Z,7.42
2019-01-26T09:50:48.972Z,7.40
2019-01-26T09:51:48.998Z,7.31
2019-01-26T09:52:49.005Z,7.36
2019-01-26T09:53:49.034Z,7.36
2019-01-26T09:54:49.044Z,7.45
2019-01-26T09:55:49.051Z,7.33
2019-01-26T09:56:49.070Z,7.36
2019-01-26T09:57:49.111Z,7.39
2019-01-26T09:58:49.165Z,7.42
2019-01-26T09:59:49.127Z,7.35
2019-01-26T10:00:49.146Z,7.39
2019-01-26T10:01:49.229Z,7.36
2019-01-26T10:02:49.169Z,7.29
2019-01-26T10:03:49.470Z,7.29
2019-01-26T10:04:49.210Z,7.39
2019-01-26T10:05:49.252Z,7.47
2019-01-26T10:06:49.235Z,7.43
2019-01-26T10:07:49.271Z,7.36
2019-01-26T10:08:49.287Z,7.35
2019-01-26T10:09:49.276Z,7.48
2019-01-26T10:10:49.326Z,7.32
2019-01-26T10:11:49.350Z,7.38
2019-01-26T10:12:49.387Z,7.39
2019-01-26T10:13:49.350Z,7.36
2019-01-26T10:14:49.371Z,7.53
2019-01-26T10:15:49.375Z,7.32
2019-01-26T10:16:49.405Z,7.38
2019-01-26T10:17:49.433Z,7.24
2019-01-26T10:18:53.509Z,7.29
2019-01-26T10:19:49.448Z,7.42
2019-01-26T10:20:49.459Z,7.35
2019-01-26T10:21:49.499Z,7.33
2019-01-26T10:22:49.538Z,7.33
2019-01-26T10:23:49.507Z,7.31
2019-01-26T10:24:49.547Z,7.35
2019-01-26T10:25:49.539Z,7.39
2019-01-26T10:26:49.568Z,7.36
2019-01-26T10:27:49.579Z,7.50
2019-01-26T10:28:49.590Z,7.47
2019-01-26T10:29:49.618Z,7.48
2019-01-26T10:30:49.641Z,7.47
2019-01-26T10:31:49.654Z,7.42
2019-01-26T10:32:49.660Z,7.40
2019-01-26T10:33:49.667Z,7.38
2019-01-26T10:34:49.687Z,7.33
2019-01-26T10:35:49.716Z,7.38
2019-01-26T10:36:49.718Z,7.35
2019-01-26T10:37:49.741Z,7.39
2019-01-26T10:38:49.753Z,7.38
2019-01-26T10:39:49.774Z,7.50
2019-01-26T10:40:49.791Z,7.48
2019-01-26T10:41:49.802Z,7.43
2019-01-26T10:42:49.822Z,7.45
2019-01-26T10:43:49.850Z,7.48
2019-01-26T10:44:49.885Z,7.28
2019-01-26T10:45:49.956Z,7.32
2019-01-26T10:46:49.902Z,7.31
2019-01-26T10:47:49.923Z,7.39
2019-01-26T10:48:49.918Z,7.47
2019-01-26T10:49:49.936Z,7.47
2019-01-26T10:50:49.957Z,7.53
2019-01-26T10:51:49.972Z,7.48
2019-01-26T10:52:50.015Z,7.40
2019-01-26T10:53:50.001Z,7.43
2019-01-26T10:54:50.020Z,7.50
2019-01-26T10:55:50.057Z,7.43
2019-01-26T10:56:50.048Z,7.45
2019-01-26T10:57:50.077Z,7.40
2019-01-26T10:58:50.109Z,7.43
2019-01-26T10:59:50.118Z,7.38
2019-01-26T11:00:50.125Z,7.32
2019-01-26T11:01:50.162Z,7.29
2019-01-26T11:02:50.169Z,7.47
2019-01-26T11:03:50.177Z,7.47
2019-01-26T11:04:50.176Z,7.43
2019-01-26T11:05:50.198Z,7.45
2019-01-26T11:06:50.218Z,7.33
2019-01-26T11:07:50.251Z,7.47
2019-01-26T11:08:50.250Z,7.36
2019-01-26T11:09:50.265Z,7.35
2019-01-26T11:10:50.302Z,7.42
2019-01-26T11:11:50.360Z,7.45
2019-01-26T11:12:50.443Z,7.48
2019-01-26T11:13:50.364Z,7.63
2019-01-26T11:14:50.345Z,7.53
2019-01-26T11:15:50.372Z,7.50
2019-01-26T11:16:50.377Z,7.47
2019-01-26T11:17:50.388Z,7.51
2019-01-26T11:18:50.435Z,7.43
2019-01-26T11:19:50.424Z,7.47
2019-01-26T11:20:50.442Z,7.53
2019-01-26T11:21:50.457Z,7.54
2019-01-26T11:22:50.487Z,7.51
2019-01-26T11:23:50.486Z,7.51
2019-01-26T11:24:50.519Z,7.60
2019-01-26T11:25:50.526Z,7.50
2019-01-26T11:26:50.611Z,7.57
2019-01-26T11:27:50.570Z,7.66
2019-01-26T11:28:50.574Z,7.58
2019-01-26T11:29:50.599Z,7.54
2019-01-26T11:30:50.638Z,7.53
2019-01-26T11:31:50.624Z,7.58
2019-01-26T11:32:50.643Z,7.58
2019-01-26T11:33:50.665Z,7.54
2019-01-26T11:34:50.670Z,7.47
2019-01-26T11:35:50.683Z,7.53
2019-01-26T11:36:50.713Z,7.63
2019-01-26T11:37:50.728Z,7.80
2019-01-26T11:38:50.780Z,7.82
2019-01-26T11:39:50.770Z,7.53
2019-01-26T11:40:50.799Z,7.50
2019-01-26T11:41:50.790Z,7.39
2019-01-26T11:42:50.824Z,7.43
2019-01-26T11:43:51.465Z,7.60
2019-01-26T11:44:50.843Z,7.79
2019-01-26T11:45:50.858Z,7.85
2019-01-26T11:46:50.882Z,7.75
2019-01-26T11:47:50.895Z,7.77
2019-01-26T11:48:50.913Z,7.61
2019-01-26T11:49:50.920Z,7.60
2019-01-26T11:50:50.943Z,7.45
2019-01-26T11:51:51.005Z,7.63
2019-01-26T11:52:50.965Z,7.63
2019-01-26T11:53:50.997Z,7.56
2019-01-26T11:54:51.011Z,7.45
2019-01-26T11:55:51.023Z,7.61
2019-01-26T11:56:51.087Z,7.67
2019-01-26T11:57:51.074Z,7.51
2019-01-26T11:58:51.094Z,7.51
2019-01-26T11:59:51.083Z,7.56
2019-01-26T12:00:51.102Z,7.45
2019-01-26T12:01:51.168Z,7.50
2019-01-26T12:02:51.159Z,7.48
2019-01-26T12:03:51.195Z,7.56
2019-01-26T12:04:51.173Z,7.53
2019-01-26T12:05:51.191Z,7.70
2019-01-26T12:06:51.200Z,7.69
2019-01-26T12:07:51.220Z,7.76
2019-01-26T12:08:51.245Z,7.60
2019-01-26T12:09:51.269Z,7.57
2019-01-26T12:10:51.338Z,7.60
2019-01-26T12:11:51.306Z,7.76
2019-01-26T12:12:51.310Z,7.77
2019-01-26T12:13:51.317Z,7.75
2019-01-26T12:14:51.333Z,7.80
2019-01-26T12:15:51.350Z,7.79
2019-01-26T12:16:51.374Z,7.66
2019-01-26T12:17:51.387Z,7.63
2019-01-26T12:18:51.538Z,7.58
2019-01-26T12:19:51.416Z,7.53
2019-01-26T12:20:51.434Z,7.77
2019-01-26T12:21:51.452Z,7.77
2019-01-26T12:22:51.502Z,7.75
2019-01-26T12:23:51.481Z,7.80
2019-01-26T12:24:51.494Z,7.79
2019-01-26T12:25:51.517Z,7.73
2019-01-26T12:26:51.530Z,7.77
2019-01-26T12:27:51.549Z,7.69
2019-01-26T12:28:51.566Z,7.76
2019-01-26T12:29:51.596Z,7.76
2019-01-26T12:30:51.610Z,7.77
2019-01-26T12:31:51.637Z,7.88
2019-01-26T12:32:51.638Z,7.83
2019-01-26T12:33:51.650Z,7.82
2019-01-26T12:34:51.655Z,7.82
2019-01-26T12:35:51.677Z,7.63
2019-01-26T12:36:51.706Z,7.76
2019-01-26T12:37:51.708Z,7.80
2019-01-26T12:38:51.729Z,7.82
2019-01-26T12:39:51.776Z,7.83
2019-01-26T12:40:52.470Z,7.75
2019-01-26T12:41:52.531Z,7.83
2019-01-26T12:42:51.799Z,7.63
2019-01-26T12:43:51.842Z,7.87
2019-01-26T12:44:51.821Z,7.85
2019-01-26T12:45:51.841Z,7.87
2019-01-26T12:46:51.869Z,7.79
2019-01-26T12:47:51.883Z,7.91
2019-01-26T12:48:51.911Z,7.87
2019-01-26T12:49:51.924Z,7.91
2019-01-26T12:50:51.939Z,7.90
2019-01-26T12:51:51.937Z,7.85
2019-01-26T12:52:51.959Z,7.80
2019-01-26T12:53:52.059Z,7.76
2019-01-26T12:54:52.044Z,7.69
2019-01-26T12:55:52.021Z,7.82
2019-01-26T12:56:52.029Z,7.87
2019-01-26T12:57:52.041Z,7.76
2019-01-26T12:58:52.062Z,7.85
2019-01-26T12:59:52.095Z,7.73
2019-01-26T13:00:52.096Z,7.66
2019-01-26T13:01:52.949Z,7.91
2019-01-26T13:02:52.980Z,7.82
2019-01-26T13:03:52.965Z,7.83
2019-01-26T13:04:52.227Z,7.80
2019-01-26T13:05:52.178Z,7.85
2019-01-26T13:06:52.188Z,7.82
2019-01-26T13:07:52.249Z,7.85
2019-01-26T13:08:52.218Z,7.90
2019-01-26T13:09:52.293Z,7.85
2019-01-26T13:10:52.264Z,7.75
2019-01-26T13:11:52.272Z,7.85
2019-01-26T13:12:52.301Z,7.79
2019-01-26T13:13:52.315Z,7.77
2019-01-26T13:14:52.326Z,7.77
2019-01-26T13:15:52.338Z,7.75
2019-01-26T13:16:52.358Z,7.66
2019-01-26T13:17:52.382Z,7.70
2019-01-26T13:18:52.389Z,7.76